Time;durP1;ratioP1;P1;durP2;ratioP2;P2;SDS_P1;SDS_P2;PMS_P1;PMS_P2;Temp;Humidity;BMP_temperature;BMP_pressure;BME280_temperature;BME280_humidity;BME280_pressure;Samples;Min_cycle;Max_cycle;Signal;HPM_P1;HPM_P2
2021/12/12 00:00:35;;;;;;;17.27;6.10;;;;;;;14.82;100.00;100010.22;4882472;29;20502;-71
2021/12/12 00:03:38;;;;;;;17.10;6.18;;;;;;;14.70;100.00;100009.03;4883342;29;20092;-70
2021/12/12 00:06:33;;;;;;;17.58;6.30;;;;;;;14.78;100.00;100006.03;4882631;29;20033;-71
2021/12/12 00:09:25;;;;;;;18.42;5.40;;;;;;;14.81;100.00;100005.91;4882965;29;20116;-71
2021/12/12 00:12:18;;;;;;;13.10;5.10;;;;;;;14.83;100.00;100004.03;4883586;29;20048;-70
2021/12/12 00:15:06;;;;;;;16.08;5.82;;;;;;;14.97;100.00;99972.59;4881278;29;20043;-71
2021/12/12 00:17:54;;;;;;;16.83;5.25;;;;;;;15.10;100.00;99978.16;4869207;29;20088;-71
2021/12/12 00:20:41;;;;;;;10.88;5.00;;;;;;;15.23;100.00;99993.31;4881223;29;20135;-71
2021/12/12 00:23:27;;;;;;;13.73;4.80;;;;;;;15.11;100.00;99993.06;4881067;29;20033;-72
2021/12/12 00:26:12;;;;;;;13.05;5.50;;;;;;;15.12;100.00;99979.81;4881728;29;20033;-72
2021/12/12 00:28:58;;;;;;;13.38;5.85;;;;;;;15.18;100.00;99994.50;4880895;29;20028;-71
2021/12/12 00:31:46;;;;;;;14.77;5.03;;;;;;;15.04;100.00;99996.91;4882565;29;20116;-71
2021/12/12 00:34:36;;;;;;;11.93;5.68;;;;;;;15.13;100.00;99981.50;4881661;29;20040;-71
2021/12/12 00:37:21;;;;;;;15.52;5.50;;;;;;;15.46;100.00;99992.25;4881302;29;20111;-71
2021/12/12 00:40:25;;;;;;;16.65;6.93;;;;;;;15.39;100.00;99998.78;4879762;29;20108;-70
2021/12/12 00:43:23;;;;;;;13.85;6.22;;;;;;;15.44;100.00;99978.28;4881872;29;20453;-71
2021/12/12 00:46:11;;;;;;;13.93;5.18;;;;;;;15.47;100.00;100002.72;4880669;29;20521;-70
2021/12/12 00:48:57;;;;;;;16.20;5.90;;;;;;;15.68;100.00;99991.16;4881439;29;20420;-71
2021/12/12 00:51:45;;;;;;;16.38;7.72;;;;;;;15.60;100.00;99990.66;4868713;29;20069;-71
2021/12/12 00:54:31;;;;;;;9.90;4.50;;;;;;;15.59;100.00;99994.22;4881030;29;20482;-71
2021/12/12 00:57:19;;;;;;;17.42;5.70;;;;;;;15.52;100.00;99992.81;4880882;29;20033;-71
2021/12/12 01:00:10;;;;;;;18.63;7.82;;;;;;;15.60;100.00;99998.59;4880327;29;20411;-71
2021/12/12 01:02:58;;;;;;;13.23;7.07;;;;;;;15.80;100.00;100008.16;4880638;29;20029;-71
2021/12/12 01:05:46;;;;;;;11.40;5.75;;;;;;;15.67;100.00;100010.53;4880816;29;20029;-71
2021/12/12 01:08:33;;;;;;;15.05;5.50;;;;;;;15.70;100.00;99997.19;4881080;29;20037;-71
2021/12/12 01:11:30;;;;;;;14.13;5.80;;;;;;;15.46;100.00;100000.16;4880174;29;20039;-70
2021/12/12 01:14:21;;;;;;;16.88;5.45;;;;;;;15.60;100.00;99998.59;4881235;29;20028;-70
2021/12/12 01:17:14;;;;;;;12.23;5.80;;;;;;;15.40;100.00;99995.19;4880094;29;20067;-70
2021/12/12 01:20:14;;;;;;;14.98;6.18;;;;;;;15.42;100.00;99988.03;4880287;29;20111;-72
2021/12/12 01:23:14;;;;;;;12.05;5.50;;;;;;;15.93;100.00;99988.09;4880779;29;20056;-70
2021/12/12 01:26:01;;;;;;;16.10;5.35;;;;;;;15.54;100.00;99967.19;4880648;29;20096;-71
2021/12/12 01:28:53;;;;;;;13.18;5.22;;;;;;;15.58;100.00;99958.19;4880502;29;20510;-71
2021/12/12 01:31:46;;;;;;;17.75;5.32;;;;;;;15.67;100.00;99957.72;4881258;29;20037;-71
2021/12/12 01:34:34;;;;;;;14.77;5.55;;;;;;;15.73;100.00;99962.72;4881005;29;20107;-71
2021/12/12 01:40:18;;;;;;;12.90;6.63;;;;;;;15.73;100.00;99964.47;4880742;29;20267;-71
2021/12/12 01:43:12;;;;;;;24.08;7.00;;;;;;;15.35;100.00;99960.25;4880088;29;20033;-71
2021/12/12 01:46:07;;;;;;;13.15;6.45;;;;;;;15.50;100.00;99949.78;4880336;29;20466;-71
2021/12/12 01:48:59;;;;;;;15.88;5.13;;;;;;;15.51;100.00;99942.75;4881303;29;20127;-70
2021/12/12 01:51:46;;;;;;;16.67;5.80;;;;;;;15.50;100.00;99925.16;4879972;29;20048;-71
2021/12/12 01:54:43;;;;;;;11.73;5.68;;;;;;;15.64;100.00;99922.69;4879650;29;20458;-72
2021/12/12 01:57:36;;;;;;;19.95;5.75;;;;;;;15.74;100.00;99918.66;4879826;29;20032;-71
2021/12/12 02:01:06;;;;;;;12.73;5.22;;;;;;;15.92;100.00;99915.94;4879861;29;20032;-71
2021/12/12 04:50:25;;;;;;;12.27;5.38;;;;;;;14.46;100.00;100002.22;4937963;29;20372;-71
2021/12/12 04:53:19;;;;;;;11.52;5.13;;;;;;;14.38;100.00;100014.00;4938350;29;20038;-71
2021/12/12 04:56:28;;;;;;;10.60;4.85;;;;;;;14.14;100.00;100029.06;4938260;29;20046;-71
2021/12/12 04:59:19;;;;;;;10.95;5.40;;;;;;;14.27;100.00;100054.00;4937678;29;20027;-72
2021/12/12 05:02:23;;;;;;;9.60;4.95;;;;;;;14.25;100.00;100047.97;4924315;29;20095;-71
2021/12/12 05:05:37;;;;;;;9.48;5.03;;;;;;;14.20;100.00;100044.59;4924149;29;20035;-71
2021/12/12 05:08:26;;;;;;;8.93;5.40;;;;;;;14.25;100.00;100060.25;4938395;29;20074;-71
2021/12/12 05:11:20;;;;;;;12.30;5.43;;;;;;;14.27;100.00;100074.25;4924558;29;20023;-71
2021/12/12 05:14:13;;;;;;;11.85;5.32;;;;;;;14.26;100.00;100091.81;4923887;29;20038;-71
2021/12/12 05:18:00;;;;;;;12.18;6.00;;;;;;;13.82;100.00;100090.13;4923589;29;20114;-70
2021/12/12 05:20:54;;;;;;;12.98;5.75;;;;;;;14.00;100.00;100083.25;4829925;29;20070;-71
2021/12/12 05:23:45;;;;;;;11.13;5.45;;;;;;;13.71;100.00;100096.75;4842955;29;20340;-71
2021/12/12 05:26:53;;;;;;;10.40;5.90;;;;;;;13.85;100.00;100097.91;4934638;29;20467;-71
2021/12/12 05:29:56;;;;;;;10.43;6.15;;;;;;;13.84;100.00;100097.97;4936965;29;20032;-72
2021/12/12 05:32:44;;;;;;;13.20;5.97;;;;;;;13.71;100.00;100102.03;4937237;29;20134;-72
2021/12/12 05:35:34;;;;;;;13.60;5.95;;;;;;;13.56;100.00;100124.53;4923459;29;20043;-72
2021/12/12 05:38:22;;;;;;;11.77;6.70;;;;;;;13.62;100.00;100134.81;4937132;29;20028;-72
2021/12/12 05:41:10;;;;;;;13.98;6.82;;;;;;;13.23;100.00;100143.38;4936873;29;20364;-71
2021/12/12 05:43:57;;;;;;;11.40;5.88;;;;;;;13.11;100.00;100176.25;4937050;29;20421;-71
2021/12/12 05:46:43;;;;;;;9.82;6.32;;;;;;;12.73;100.00;100175.84;4936556;29;20052;-71
2021/12/12 05:49:29;;;;;;;12.85;8.57;;;;;;;12.60;100.00;100183.31;4938116;29;20051;-72
2021/12/12 05:52:18;;;;;;;16.02;9.55;;;;;;;12.15;100.00;100194.47;4936825;29;20031;-71
2021/12/12 05:55:06;;;;;;;15.60;10.20;;;;;;;11.87;100.00;100201.50;4937169;29;20309;-71
2021/12/12 05:57:55;;;;;;;17.95;11.27;;;;;;;11.62;100.00;100214.50;4937097;29;20437;-72
2021/12/12 06:00:51;;;;;;;19.58;11.70;;;;;;;11.64;100.00;100215.31;4936903;29;20388;-72
2021/12/12 06:03:42;;;;;;;17.05;11.38;;;;;;;11.20;100.00;100233.19;4936797;29;20019;-71
2021/12/12 06:06:36;;;;;;;16.73;11.10;;;;;;;11.13;100.00;100247.38;4936258;29;20027;-71
2021/12/12 06:09:22;;;;;;;22.55;12.77;;;;;;;11.40;100.00;100246.59;4937364;29;20035;-72
2021/12/12 06:12:09;;;;;;;17.27;11.90;;;;;;;11.20;100.00;100267.28;4936448;29;20094;-72
2021/12/12 06:14:55;;;;;;;20.77;12.55;;;;;;;10.99;100.00;100262.59;4936621;29;20034;-73
2021/12/12 06:17:42;;;;;;;18.23;12.27;;;;;;;10.83;100.00;100269.16;4936959;29;20028;-71
2021/12/12 06:20:29;;;;;;;19.00;11.57;;;;;;;10.98;100.00;100274.00;4936975;29;20055;-71
2021/12/12 06:23:16;;;;;;;19.90;13.25;;;;;;;11.13;100.00;100289.34;4936529;29;20444;-72
2021/12/12 06:26:03;;;;;;;23.45;13.38;;;;;;;10.84;100.00;100281.38;4936545;29;20516;-72
2021/12/12 06:28:50;;;;;;;22.02;13.68;;;;;;;11.00;100.00;100274.81;4936257;29;20028;-71
2021/12/12 06:31:39;;;;;;;20.58;13.13;;;;;;;10.63;100.00;100274.91;4937697;29;20115;-72
2021/12/12 06:34:25;;;;;;;24.05;14.05;;;;;;;10.79;100.00;100283.22;4937369;29;20028;-71
2021/12/12 06:37:11;;;;;;;22.00;13.27;;;;;;;10.64;100.00;100305.44;4938095;29;20440;-72
2021/12/12 06:39:58;;;;;;;24.27;14.45;;;;;;;10.65;100.00;100306.31;4926627;29;20051;-71
2021/12/12 06:42:44;;;;;;;23.33;13.40;;;;;;;10.72;100.00;100316.56;4939974;29;20491;-72
2021/12/12 06:45:30;;;;;;;21.95;14.25;;;;;;;10.87;100.00;100313.59;4940590;29;20055;-71
2021/12/12 06:48:17;;;;;;;22.50;14.38;;;;;;;10.59;100.00;100316.91;4940248;29;20047;-71
2021/12/12 06:51:04;;;;;;;28.27;15.98;;;;;;;10.66;100.00;100311.50;4925471;29;20031;-72
2021/12/12 06:53:50;;;;;;;25.70;13.68;;;;;;;10.45;100.00;100326.88;4939820;29;20028;-73
2021/12/12 06:56:36;;;;;;;24.65;14.00;;;;;;;10.34;100.00;100337.59;4940518;29;20123;-71
2021/12/12 06:59:24;;;;;;;21.90;13.60;;;;;;;10.54;100.00;100351.09;4940297;29;20107;-72
2021/12/12 07:02:11;;;;;;;24.50;13.77;;;;;;;10.97;100.00;100361.41;4926024;29;20043;-72
2021/12/12 07:04:56;;;;;;;24.67;15.48;;;;;;;10.97;100.00;100369.25;4940798;29;20080;-72
2021/12/12 07:07:44;;;;;;;22.77;14.48;;;;;;;11.12;100.00;100371.47;4941719;28;20436;-72
2021/12/12 07:10:31;;;;;;;21.65;15.13;;;;;;;11.31;100.00;100380.63;4927050;29;20036;-72
2021/12/12 07:13:18;;;;;;;24.50;15.98;;;;;;;11.46;100.00;100388.97;4940190;29;20059;-72
2021/12/12 07:16:05;;;;;;;26.55;16.58;;;;;;;11.20;100.00;100412.34;4941013;29;20123;-71
2021/12/12 07:18:53;;;;;;;24.73;15.30;;;;;;;11.72;100.00;100407.53;4926408;29;20098;-72
2021/12/12 07:21:41;;;;;;;26.92;15.90;;;;;;;11.46;100.00;100401.22;4939350;29;20480;-72
2021/12/12 07:24:30;;;;;;;23.45;14.23;;;;;;;11.11;100.00;100422.19;4939131;29;20031;-71
2021/12/12 07:27:17;;;;;;;20.33;13.75;;;;;;;11.55;100.00;100414.06;4939311;29;20028;-72
2021/12/12 07:30:05;;;;;;;20.00;13.25;;;;;;;11.73;100.00;100429.38;4926209;29;20038;-73
2021/12/12 07:32:52;;;;;;;19.45;12.65;;;;;;;11.62;100.00;100434.06;4939650;29;20471;-73
2021/12/12 14:33:35;;;;;;;6.75;5.00;;;;;;;10.55;100.00;100874.09;4916713;29;20044;-72
2021/12/12 14:36:24;;;;;;;8.43;4.65;;;;;;;10.50;100.00;100870.69;4917196;29;20036;-72
2021/12/12 14:39:13;;;;;;;14.25;5.35;;;;;;;10.37;100.00;100876.09;4905259;29;20031;-72
2021/12/12 14:42:10;;;;;;;6.80;4.38;;;;;;;10.44;100.00;100888.22;4917386;29;20453;-71
2021/12/12 14:45:06;;;;;;;10.73;6.22;;;;;;;10.43;100.00;100889.97;4918878;29;20032;-72
2021/12/12 14:47:58;;;;;;;13.07;5.78;;;;;;;10.05;100.00;100902.72;4903877;29;20046;-72
2021/12/12 14:50:51;;;;;;;7.47;4.40;;;;;;;10.18;100.00;100900.78;4904300;29;20028;-71
2021/12/12 14:53:45;;;;;;;6.75;4.70;;;;;;;9.95;100.00;100894.09;4917748;29;20107;-72
2021/12/12 14:56:39;;;;;;;6.07;4.20;;;;;;;9.98;100.00;100890.56;4917762;29;20091;-71
2021/12/12 14:59:28;;;;;;;4.47;3.47;;;;;;;10.19;100.00;100890.31;4920605;29;20031;-72
2021/12/12 15:02:22;;;;;;;5.43;3.85;;;;;;;10.31;100.00;100889.28;4922100;29;20488;-71
2021/12/12 15:05:15;;;;;;;6.97;4.28;;;;;;;10.08;100.00;100900.03;4921888;29;20505;-71
2021/12/12 15:08:13;;;;;;;6.70;4.70;;;;;;;10.16;100.00;100906.06;4907141;29;20071;-72
2021/12/12 15:11:28;;;;;;;8.35;4.85;;;;;;;9.69;100.00;100906.56;4921630;29;20427;-71
2021/12/12 15:14:18;;;;;;;9.52;5.32;;;;;;;9.64;100.00;100904.91;4921736;29;20469;-71
2021/12/12 15:17:12;;;;;;;10.55;5.10;;;;;;;9.83;100.00;100904.69;4919569;29;20473;-71
2021/12/12 15:20:05;;;;;;;14.90;4.90;;;;;;;9.86;100.00;100929.97;4922253;29;20119;-72
2021/12/12 15:22:54;;;;;;;7.40;4.55;;;;;;;9.96;100.00;100931.56;4921612;29;20116;-72
2021/12/12 15:25:44;;;;;;;7.40;5.03;;;;;;;9.70;100.00;100933.63;4907220;29;20479;-71
2021/12/12 15:28:34;;;;;;;7.22;4.68;;;;;;;9.45;100.00;100934.75;4921198;29;20080;-72
2021/12/12 15:31:34;;;;;;;9.25;5.32;;;;;;;9.88;100.00;100944.75;4920011;29;20362;-72
2021/12/12 15:34:24;;;;;;;8.27;5.40;;;;;;;9.77;100.00;100932.69;4921747;29;20364;-71
2021/12/12 15:37:13;;;;;;;7.70;5.60;;;;;;;9.64;100.00;100931.94;4906750;29;20051;-72
2021/12/12 15:40:16;;;;;;;10.02;5.57;;;;;;;9.37;100.00;100932.19;4907892;29;20099;-72
2021/12/12 15:43:07;;;;;;;8.07;4.80;;;;;;;9.50;100.00;100946.91;4921966;29;20036;-71
2021/12/12 15:46:09;;;;;;;9.45;5.18;;;;;;;9.60;100.00;100940.69;4921319;29;20028;-72
2021/12/12 15:48:59;;;;;;;7.70;5.28;;;;;;;9.48;100.00;100948.66;4920938;29;20032;-72
2021/12/12 15:51:47;;;;;;;8.63;5.60;;;;;;;9.41;100.00;100956.59;4907277;29;20027;-71
2021/12/12 15:54:34;;;;;;;9.60;6.07;;;;;;;9.44;100.00;100956.53;4920168;29;20083;-71
2021/12/12 15:57:28;;;;;;;7.63;5.03;;;;;;;9.50;100.00;100961.72;4920450;29;20031;-72
2021/12/12 16:00:19;;;;;;;7.57;5.15;;;;;;;9.34;100.00;100961.00;4907960;29;20167;-71
2021/12/12 16:03:11;;;;;;;8.63;5.65;;;;;;;9.68;100.00;100969.38;4920913;29;20123;-73
2021/12/12 16:06:00;;;;;;;7.93;5.30;;;;;;;9.34;100.00;100970.59;4906219;29;20071;-72
2021/12/12 16:08:47;;;;;;;7.03;4.82;;;;;;;9.34;100.00;100970.59;4920046;29;20138;-72
2021/12/12 16:11:34;;;;;;;9.85;5.18;;;;;;;9.17;100.00;100986.38;4919898;29;20032;-71
2021/12/12 16:14:25;;;;;;;11.70;5.13;;;;;;;8.84;100.00;100991.84;4906438;29;20035;-72
2021/12/12 16:17:25;;;;;;;7.95;5.07;;;;;;;9.39;100.00;100997.56;4920025;29;20031;-72
2021/12/12 16:20:16;;;;;;;13.05;5.88;;;;;;;9.28;100.00;101002.00;4894335;29;20032;-71
2021/12/12 16:23:03;;;;;;;8.00;5.10;;;;;;;8.86;100.00;101002.28;4906255;29;20466;-72
2021/12/12 16:26:02;;;;;;;8.43;5.40;;;;;;;8.89;100.00;101007.50;4906079;29;20466;-72
2021/12/12 16:28:49;;;;;;;7.00;4.82;;;;;;;8.95;100.00;101016.19;4919035;29;20579;-70
2021/12/12 16:31:36;;;;;;;9.45;5.88;;;;;;;9.16;100.00;101023.00;4920481;29;20059;-72
2021/12/12 16:34:24;;;;;;;7.05;4.63;;;;;;;8.92;100.00;101041.47;4920205;29;20028;-70
2021/12/12 16:37:14;;;;;;;7.53;4.57;;;;;;;9.19;100.00;101047.38;4906487;29;20354;-73
2021/12/12 16:40:09;;;;;;;6.82;4.90;;;;;;;9.11;100.00;101048.31;4920197;29;20359;-71
2021/12/12 16:43:08;;;;;;;17.05;8.77;;;;;;;8.74;100.00;101039.81;4919541;29;20084;-72
2021/12/12 16:46:12;;;;;;;9.13;5.80;;;;;;;8.45;100.00;101049.50;4920600;29;20063;-71
2021/12/12 16:49:02;;;;;;;8.65;6.10;;;;;;;8.70;100.00;101056.38;4919424;29;20056;-71
2021/12/12 16:51:59;;;;;;;7.30;4.50;;;;;;;8.88;100.00;101068.50;4920479;29;20032;-72
2021/12/12 16:54:49;;;;;;;7.75;4.65;;;;;;;8.70;100.00;101066.81;4919175;29;20113;-71
2021/12/12 16:57:40;;;;;;;6.75;4.85;;;;;;;8.31;100.00;101082.63;4919790;29;20055;-72
2021/12/12 17:00:33;;;;;;;10.45;5.38;;;;;;;8.31;100.00;101080.00;4919152;29;20039;-72
2021/12/12 17:03:32;;;;;;;9.15;5.32;;;;;;;8.58;100.00;101086.88;4919636;29;20067;-71
2021/12/12 17:06:29;;;;;;;9.60;5.40;;;;;;;8.65;100.00;101081.63;4918897;29;20095;-71
2021/12/12 17:09:40;;;;;;;4.93;3.80;;;;;;;8.78;100.00;101077.22;4905634;29;20032;-71
2021/12/12 17:12:30;;;;;;;11.45;7.72;;;;;;;8.48;100.00;101085.19;4919092;29;20067;-72
2021/12/12 17:15:18;;;;;;;7.03;5.15;;;;;;;8.85;100.00;101102.47;4918959;29;20032;-71
2021/12/12 17:18:12;;;;;;;27.45;15.90;;;;;;;8.33;100.00;101109.56;4918850;29;20144;-72
2021/12/12 17:21:04;;;;;;;9.48;5.20;;;;;;;8.61;100.00;101115.63;4918577;29;20111;-70
2021/12/12 17:24:10;;;;;;;9.27;4.70;;;;;;;8.06;100.00;101111.34;4905331;29;20024;-72
2021/12/12 17:27:05;;;;;;;8.90;5.60;;;;;;;8.30;100.00;101106.13;4920517;29;20459;-72
2021/12/12 17:29:57;;;;;;;6.47;4.88;;;;;;;8.06;100.00;101117.44;4909101;29;20036;-72
2021/12/12 17:33:07;;;;;;;8.23;5.90;;;;;;;8.28;100.00;101121.78;4918672;29;20072;-71
2021/12/12 17:36:17;;;;;;;8.77;5.50;;;;;;;7.94;100.00;101125.28;4905231;29;20369;-71
2021/12/12 17:39:08;;;;;;;7.93;4.80;;;;;;;8.01;100.00;101123.53;4919091;29;20066;-72
2021/12/12 17:42:03;;;;;;;5.97;4.85;;;;;;;7.91;100.00;101135.69;4918411;29;20032;-71
2021/12/12 17:44:54;;;;;;;8.05;5.40;;;;;;;7.97;100.00;101129.63;4918989;29;20046;-71
2021/12/12 17:48:08;;;;;;;8.68;5.38;;;;;;;8.18;100.00;101125.25;4918456;29;20028;-71
2021/12/12 17:51:27;;;;;;;6.10;4.60;;;;;;;8.06;100.00;101133.09;4918998;29;20044;-73
2021/12/12 17:54:25;;;;;;;7.95;4.88;;;;;;;8.07;100.00;101141.78;4904846;29;20036;-72
2021/12/12 17:57:34;;;;;;;8.48;6.10;;;;;;;7.79;100.00;101150.47;4918741;29;20021;-72
2021/12/12 18:00:29;;;;;;;7.00;5.30;;;;;;;7.93;100.00;101162.69;4918711;29;20043;-72
2021/12/12 18:03:18;;;;;;;11.52;6.43;;;;;;;7.70;100.00;101148.75;4904865;29;20032;-71
2021/12/12 18:06:21;;;;;;;7.40;5.80;;;;;;;7.94;100.00;101164.41;4903568;29;20429;-72
2021/12/12 18:09:07;;;;;;;7.30;5.75;;;;;;;7.74;100.00;101158.31;4919050;29;20092;-71
2021/12/12 18:12:01;;;;;;;7.85;5.80;;;;;;;7.93;100.00;101153.97;4904886;29;20059;-71
2021/12/12 18:14:49;;;;;;;10.20;6.00;;;;;;;7.73;100.00;101153.09;4918309;29;20028;-71
2021/12/12 18:17:37;;;;;;;7.85;6.18;;;;;;;7.49;100.00;101161.75;4917566;29;20043;-72
2021/12/12 18:20:38;;;;;;;10.70;6.40;;;;;;;7.80;100.00;101163.50;4917969;29;20035;-71
2021/12/12 18:23:30;;;;;;;9.85;6.22;;;;;;;7.74;100.00;101167.84;4917925;29;20040;-71
2021/12/12 18:26:34;;;;;;;8.68;6.40;;;;;;;7.87;100.00;101175.69;4918186;29;20028;-71
2021/12/12 18:29:29;;;;;;;10.88;6.72;;;;;;;7.89;100.00;101178.31;4919159;29;20043;-71
2021/12/12 18:32:35;;;;;;;9.23;6.15;;;;;;;7.52;100.00;101166.09;4917904;29;20126;-71
2021/12/12 18:35:27;;;;;;;9.90;6.60;;;;;;;7.69;100.00;101169.59;4917675;29;20099;-72
2021/12/12 18:38:34;;;;;;;8.70;6.32;;;;;;;7.49;100.00;101173.91;4907895;29;20410;-71
2021/12/12 18:41:32;;;;;;;7.60;6.20;;;;;;;7.52;100.00;101173.91;4922266;29;20024;-71
2021/12/12 18:44:26;;;;;;;8.63;6.53;;;;;;;7.04;100.00;101178.97;4922076;29;20046;-72
2021/12/12 18:47:12;;;;;;;8.07;6.22;;;;;;;7.29;100.00;101186.91;4921380;29;20032;-72
2021/12/12 18:50:06;;;;;;;41.00;21.75;;;;;;;7.10;100.00;101184.19;4922933;29;20377;-73
2021/12/12 18:53:06;;;;;;;10.90;7.13;;;;;;;6.79;100.00;101175.38;4907820;29;20032;-72
2021/12/12 18:55:55;;;;;;;9.68;7.10;;;;;;;6.75;100.00;101191.00;4922042;29;20036;-72
2021/12/12 18:58:48;;;;;;;9.30;7.38;;;;;;;7.11;100.00;101183.38;4921668;29;20024;-72
2021/12/12 19:01:51;;;;;;;11.10;7.30;;;;;;;7.08;100.00;101184.19;4921825;29;20043;-72
2021/12/12 19:04:48;;;;;;;10.25;6.97;;;;;;;7.04;100.00;101186.78;4921445;29;20024;-71
2021/12/12 19:07:34;;;;;;;9.57;6.75;;;;;;;6.76;100.00;101187.53;4921346;29;20063;-72
2021/12/12 19:10:20;;;;;;;8.55;6.47;;;;;;;6.69;100.00;101196.16;4920571;29;20038;-72
2021/12/12 19:13:07;;;;;;;9.25;6.82;;;;;;;6.33;100.00;101203.72;4908488;29;20046;-71
2021/12/12 19:15:54;;;;;;;8.77;6.70;;;;;;;6.61;100.00;101203.94;4921763;29;20028;-72
2021/12/12 19:18:45;;;;;;;8.63;6.65;;;;;;;6.90;100.00;101201.47;4906952;29;20032;-71
2021/12/12 19:21:44;;;;;;;8.18;6.00;;;;;;;6.79;100.00;101217.03;4919794;29;20449;-71
2021/12/12 19:24:32;;;;;;;7.97;5.90;;;;;;;6.69;100.00;101219.59;4920649;29;20031;-72
2021/12/12 19:27:20;;;;;;;8.60;6.35;;;;;;;6.85;100.00;101231.84;4921071;29;20032;-71
2021/12/12 19:30:18;;;;;;;8.38;6.60;;;;;;;6.46;100.00;101236.78;4921388;29;20039;-72
2021/12/12 19:33:24;;;;;;;8.80;6.47;;;;;;;6.26;100.00;101239.25;4920798;29;20413;-71
2021/12/12 19:36:11;;;;;;;6.95;5.60;;;;;;;6.60;100.00;101233.44;4920528;29;20047;-71
2021/12/12 19:38:57;;;;;;;9.40;6.10;;;;;;;6.62;100.00;101230.81;4921188;29;20020;-73
2021/12/12 19:41:51;;;;;;;7.47;6.10;;;;;;;6.59;100.00;101236.88;4907152;29;20036;-72
2021/12/12 19:44:39;;;;;;;9.98;7.13;;;;;;;6.30;100.00;101230.59;4921419;29;20035;-71
2021/12/12 19:47:25;;;;;;;8.48;6.68;;;;;;;6.54;100.00;101235.09;4907151;29;20039;-71
2021/12/12 19:50:16;;;;;;;10.13;7.47;;;;;;;6.49;100.00;101229.88;4921094;29;20056;-72
2021/12/12 19:53:05;;;;;;;8.82;7.20;;;;;;;5.81;100.00;101236.22;4907333;29;20108;-71
2021/12/12 19:55:54;;;;;;;9.77;7.18;;;;;;;5.93;100.00;101246.75;4920409;29;20040;-71
2021/12/12 19:58:53;;;;;;;9.18;7.20;;;;;;;5.92;100.00;101247.63;4920524;29;20032;-72
2021/12/12 20:01:40;;;;;;;10.25;6.97;;;;;;;6.15;100.00;101260.84;4921092;29;20450;-71
2021/12/12 20:04:32;;;;;;;11.13;7.63;;;;;;;6.29;100.00;101259.19;4906888;29;20032;-71
2021/12/12 20:07:20;;;;;;;11.98;7.50;;;;;;;5.89;100.00;101263.19;4919069;29;20446;-71
2021/12/12 20:10:26;;;;;;;8.95;7.35;;;;;;;5.91;100.00;101260.59;4920940;29;20036;-71
2021/12/12 20:13:13;;;;;;;9.55;7.55;;;;;;;5.99;100.00;101266.75;4919757;29;20335;-72
2021/12/12 20:16:03;;;;;;;9.07;7.13;;;;;;;5.92;100.00;101262.34;4906333;29;20131;-72
2021/12/12 20:18:49;;;;;;;10.02;7.55;;;;;;;6.00;100.00;101256.38;4919255;29;20027;-71
2021/12/12 20:21:43;;;;;;;10.18;8.00;;;;;;;6.36;100.00;101268.81;4919397;29;20047;-71
2021/12/12 20:24:33;;;;;;;11.70;8.05;;;;;;;6.33;100.00;101267.06;4920590;29;20028;-71
